createdAt,value
2019-04-26T00:00:36.914Z,44.69
2019-04-26T00:01:36.907Z,44.49
2019-04-26T00:02:36.894Z,44.51
2019-04-26T00:03:36.918Z,44.41
2019-04-26T00:04:36.874Z,44.39
2019-04-26T00:05:37.403Z,45.42
2019-04-26T00:06:36.851Z,44.61
2019-04-26T00:07:36.840Z,44.71
2019-04-26T00:08:36.856Z,45.92
2019-04-26T00:09:36.812Z,46.42
2019-04-26T00:10:36.801Z,47.00
2019-04-26T00:11:36.791Z,46.53
2019-04-26T00:12:36.779Z,46.02
2019-04-26T00:13:36.812Z,45.52
2019-04-26T00:14:36.763Z,46.33
2019-04-26T00:15:36.753Z,46.53
2019-04-26T00:16:36.735Z,46.33
2019-04-26T00:17:36.729Z,46.33
2019-04-26T00:18:39.424Z,46.53
2019-04-26T00:19:36.701Z,46.22
2019-04-26T00:20:36.696Z,46.33
2019-04-26T00:21:36.689Z,46.93
2019-04-26T00:22:36.668Z,47.03
2019-04-26T00:23:36.719Z,47.74
2019-04-26T00:24:36.649Z,47.33
2019-04-26T00:25:36.641Z,46.83
2019-04-26T00:26:36.623Z,47.83
2019-04-26T00:27:36.612Z,47.13
2019-04-26T00:28:36.606Z,46.55
2019-04-26T00:29:36.621Z,47.03
2019-04-26T00:30:36.580Z,46.73
2019-04-26T00:31:36.574Z,47.33
2019-04-26T00:32:36.565Z,47.35
2019-04-26T00:33:36.551Z,46.83
2019-04-26T00:34:36.567Z,46.33
2019-04-26T00:35:46.822Z,47.35
2019-04-26T00:36:37.514Z,47.13
2019-04-26T00:37:36.508Z,47.15
2019-04-26T00:38:36.490Z,46.75
2019-04-26T00:39:36.522Z,47.25
2019-04-26T00:40:36.478Z,47.25
2019-04-26T00:41:36.456Z,46.45
2019-04-26T00:42:36.453Z,46.65
2019-04-26T00:43:36.433Z,47.55
2019-04-26T00:44:36.455Z,47.45
2019-04-26T00:45:36.419Z,47.25
2019-04-26T00:46:36.413Z,46.75
2019-04-26T00:47:36.399Z,48.46
2019-04-26T00:48:36.425Z,47.86
2019-04-26T00:49:43.556Z,47.86
2019-04-26T00:50:37.358Z,47.75
2019-04-26T00:51:36.353Z,47.55
2019-04-26T00:52:36.355Z,47.96
2019-04-26T00:53:36.336Z,47.86
2019-04-26T00:54:36.352Z,48.96
2019-04-26T00:55:36.305Z,48.56
2019-04-26T00:56:36.295Z,48.26
2019-04-26T00:57:36.289Z,48.46
2019-04-26T00:58:36.268Z,47.96
2019-04-26T00:59:36.320Z,48.16
2019-04-26T01:00:36.248Z,49.16
2019-04-26T01:01:36.242Z,48.26
2019-04-26T01:02:36.228Z,48.06
2019-04-26T01:03:36.216Z,49.07
2019-04-26T01:04:36.204Z,49.07
2019-04-26T01:05:36.244Z,47.96
2019-04-26T01:06:36.179Z,48.36
2019-04-26T01:07:36.173Z,49.39
2019-04-26T01:08:36.170Z,49.27
2019-04-26T01:09:36.144Z,48.66
2019-04-26T01:10:36.175Z,48.76
2019-04-26T01:11:36.123Z,49.07
2019-04-26T01:12:36.116Z,48.76
2019-04-26T01:13:36.104Z,48.86
2019-04-26T01:14:36.107Z,49.07
2019-04-26T01:15:36.119Z,48.96
2019-04-26T01:16:36.074Z,49.29
2019-04-26T01:17:36.060Z,49.69
2019-04-26T01:18:36.049Z,49.39
2019-04-26T01:19:36.034Z,49.79
2019-04-26T01:20:36.070Z,49.49
2019-04-26T01:21:36.015Z,50.30
2019-04-26T01:22:36.005Z,49.79
2019-04-26T01:23:35.997Z,48.79
2019-04-26T01:24:35.982Z,50.20
2019-04-26T01:25:36.006Z,50.30
2019-04-26T01:26:35.957Z,50.50
2019-04-26T01:27:35.949Z,49.99
2019-04-26T01:28:35.932Z,50.40
2019-04-26T01:29:35.922Z,49.99
2019-04-26T01:30:35.950Z,49.19
2019-04-26T01:31:35.903Z,49.59
2019-04-26T01:32:35.889Z,50.30
2019-04-26T01:33:35.885Z,50.60
2019-04-26T01:34:35.867Z,50.90
2019-04-26T01:35:35.897Z,50.70
2019-04-26T01:36:35.864Z,50.40
2019-04-26T01:37:35.837Z,50.80
2019-04-26T01:38:35.828Z,50.02
2019-04-26T01:39:35.818Z,50.90
2019-04-26T01:40:35.837Z,50.52
2019-04-26T01:41:35.788Z,50.52
2019-04-26T01:42:35.785Z,50.93
2019-04-26T01:43:35.770Z,50.73
2019-04-26T01:44:35.757Z,50.62
2019-04-26T01:45:35.757Z,51.13
2019-04-26T01:46:35.769Z,50.52
2019-04-26T01:47:35.739Z,50.93
2019-04-26T01:48:35.726Z,51.03
2019-04-26T01:49:35.700Z,51.33
2019-04-26T01:50:35.696Z,51.53
2019-04-26T01:51:35.711Z,51.03
2019-04-26T01:52:35.693Z,51.03
2019-04-26T01:53:35.659Z,51.53
2019-04-26T01:54:35.649Z,52.44
2019-04-26T01:55:35.671Z,51.64
2019-04-26T01:56:35.664Z,51.13
2019-04-26T01:57:35.610Z,51.64
2019-04-26T01:58:35.598Z,51.84
2019-04-26T01:59:35.601Z,51.03
2019-04-26T02:00:35.582Z,52.94
2019-04-26T02:01:35.597Z,52.54
2019-04-26T02:02:35.559Z,52.54
2019-04-26T02:03:35.547Z,52.84
2019-04-26T02:04:35.537Z,52.54
2019-04-26T02:05:35.522Z,52.47
2019-04-26T02:06:35.548Z,53.34
2019-04-26T02:07:35.499Z,53.38
2019-04-26T02:08:35.487Z,53.25
2019-04-26T02:09:35.476Z,53.14
2019-04-26T02:10:35.466Z,53.25
2019-04-26T02:11:35.498Z,52.94
2019-04-26T02:12:35.446Z,52.94
2019-04-26T02:13:35.433Z,53.58
2019-04-26T02:14:35.424Z,53.65
2019-04-26T02:15:35.420Z,53.38
2019-04-26T02:16:35.437Z,53.88
2019-04-26T02:17:35.391Z,53.07
2019-04-26T02:18:35.380Z,53.07
2019-04-26T02:19:35.368Z,53.27
2019-04-26T02:20:35.353Z,53.47
2019-04-26T02:21:35.397Z,53.47
2019-04-26T02:22:35.337Z,53.47
2019-04-26T02:23:35.329Z,54.38
2019-04-26T02:24:35.320Z,53.78
2019-04-26T02:25:35.308Z,54.28
2019-04-26T02:26:35.325Z,54.68
2019-04-26T02:27:35.286Z,54.38
2019-04-26T02:28:35.272Z,54.58
2019-04-26T02:29:35.257Z,54.61
2019-04-26T02:30:36.738Z,54.48
2019-04-26T02:31:37.577Z,54.18
2019-04-26T02:32:36.940Z,54.68
2019-04-26T02:33:36.733Z,55.49
2019-04-26T02:34:37.628Z,55.19
2019-04-26T02:35:35.874Z,55.29
2019-04-26T02:36:55.349Z,54.99
2019-04-26T02:37:37.940Z,54.18
2019-04-26T02:38:36.677Z,55.39
2019-04-26T02:39:35.996Z,55.90
2019-04-26T02:40:36.751Z,55.62
2019-04-26T02:41:35.707Z,55.39
2019-04-26T02:42:36.831Z,54.81
2019-04-26T02:43:35.857Z,54.99
2019-04-26T02:44:36.508Z,54.89
2019-04-26T02:45:36.786Z,55.52
2019-04-26T02:46:36.642Z,55.09
2019-04-26T02:47:36.912Z,55.49
2019-04-26T02:48:36.532Z,56.23
2019-04-26T02:49:36.608Z,54.99
2019-04-26T02:50:36.582Z,54.99
2019-04-26T02:51:36.441Z,55.82
2019-04-26T02:52:35.902Z,55.92
2019-04-26T02:53:36.567Z,55.92
2019-04-26T02:54:36.531Z,56.02
2019-04-26T02:55:41.776Z,56.43
2019-04-26T02:56:37.754Z,56.52
2019-04-26T02:57:36.498Z,55.82
2019-04-26T02:58:35.999Z,56.83
2019-04-26T02:59:37.784Z,56.43
2019-04-26T03:00:35.864Z,57.23
2019-04-26T03:01:36.644Z,57.03
2019-04-26T03:02:36.725Z,56.83
2019-04-26T03:03:36.350Z,56.93
2019-04-26T03:04:36.445Z,56.52
2019-04-26T03:05:35.755Z,56.83
2019-04-26T03:06:36.902Z,57.14
2019-04-26T03:07:35.897Z,57.23
2019-04-26T03:08:35.835Z,57.54
2019-04-26T03:09:35.611Z,57.34
2019-04-26T03:10:36.635Z,57.23
2019-04-26T03:11:35.129Z,57.43
2019-04-26T03:12:36.210Z,56.93
2019-04-26T03:13:36.328Z,57.43
2019-04-26T03:14:36.510Z,57.74
2019-04-26T03:15:35.798Z,56.73
2019-04-26T03:16:36.793Z,56.73
2019-04-26T03:17:36.202Z,57.64
2019-04-26T03:18:35.502Z,57.43
2019-04-26T03:19:36.255Z,58.14
2019-04-26T03:20:36.162Z,58.17
2019-04-26T03:21:36.412Z,57.64
2019-04-26T03:22:35.647Z,58.17
2019-04-26T03:23:53.300Z,58.07
2019-04-26T03:24:37.192Z,58.25
2019-04-26T03:25:36.162Z,58.17
2019-04-26T03:26:35.611Z,57.97
2019-04-26T03:27:35.732Z,58.14
2019-04-26T03:28:36.896Z,58.25
2019-04-26T03:29:36.611Z,58.14
2019-04-26T03:30:41.509Z,58.04
2019-04-26T03:31:42.895Z,57.76
2019-04-26T03:32:40.636Z,58.27
2019-04-26T03:33:42.075Z,57.76
2019-04-26T03:34:40.251Z,58.58
2019-04-26T03:35:43.924Z,57.97
2019-04-26T03:36:37.927Z,57.87
2019-04-26T03:37:36.539Z,58.67
2019-04-26T03:38:36.214Z,57.76
2019-04-26T03:39:36.607Z,58.37
2019-04-26T03:40:36.388Z,58.67
2019-04-26T03:41:36.322Z,58.78
2019-04-26T03:42:36.445Z,59.28
2019-04-26T03:43:36.313Z,58.37
2019-04-26T03:44:35.029Z,58.78
2019-04-26T03:45:35.207Z,59.08
2019-04-26T03:46:35.528Z,59.28
2019-04-26T03:47:37.662Z,59.18
2019-04-26T03:48:37.046Z,58.47
2019-04-26T03:49:36.075Z,59.28
2019-04-26T03:50:35.865Z,59.58
2019-04-26T03:51:35.702Z,59.18
2019-04-26T03:52:35.506Z,59.28
2019-04-26T03:53:35.552Z,58.87
2019-04-26T03:54:35.611Z,59.08
2019-04-26T03:55:35.777Z,59.18
2019-04-26T03:56:35.905Z,59.61
2019-04-26T03:57:36.329Z,59.18
2019-04-26T03:58:35.883Z,59.21
2019-04-26T03:59:35.207Z,60.22
2019-04-26T04:00:34.970Z,59.58
2019-04-26T04:01:35.424Z,60.02
2019-04-26T04:02:36.629Z,59.91
2019-04-26T04:03:35.885Z,59.81
2019-04-26T04:04:36.918Z,59.91
2019-04-26T04:05:35.997Z,60.42
2019-04-26T04:06:52.450Z,60.42
2019-04-26T04:07:39.178Z,60.49
2019-04-26T04:08:34.183Z,59.99
2019-04-26T04:09:34.169Z,60.29
2019-04-26T04:10:34.119Z,61.00
2019-04-26T04:11:34.242Z,61.13
2019-04-26T04:12:34.096Z,60.89
2019-04-26T04:13:34.227Z,61.20
2019-04-26T04:14:34.104Z,61.10
2019-04-26T04:15:34.068Z,60.49
2019-04-26T04:16:34.060Z,61.20
2019-04-26T04:17:34.043Z,61.40
2019-04-26T04:18:34.027Z,60.69
2019-04-26T04:19:34.057Z,60.19
2019-04-26T04:20:34.012Z,60.93
2019-04-26T04:21:34.002Z,60.60
2019-04-26T04:22:33.986Z,60.60
2019-04-26T04:23:33.991Z,60.60
2019-04-26T04:24:33.996Z,61.00
2019-04-26T04:25:33.956Z,59.99
2019-04-26T04:26:33.937Z,59.99
2019-04-26T04:27:33.930Z,60.42
2019-04-26T04:28:33.924Z,60.12
2019-04-26T04:29:42.206Z,60.49
2019-04-26T04:30:34.921Z,60.72
2019-04-26T04:31:33.899Z,60.69
2019-04-26T04:32:33.870Z,60.32
2019-04-26T04:33:33.877Z,60.93
2019-04-26T04:34:33.852Z,61.23
2019-04-26T04:35:33.877Z,61.03
2019-04-26T04:36:33.828Z,60.82
2019-04-26T04:37:33.821Z,61.33
2019-04-26T04:38:33.802Z,61.23
2019-04-26T04:39:33.793Z,61.43
2019-04-26T04:40:33.818Z,61.80
2019-04-26T04:41:33.779Z,61.33
2019-04-26T04:42:33.830Z,61.20
2019-04-26T04:43:33.824Z,61.33
2019-04-26T04:44:33.743Z,61.80
2019-04-26T04:45:33.762Z,61.94
2019-04-26T04:46:33.724Z,61.10
2019-04-26T04:47:33.713Z,60.89
2019-04-26T04:48:33.690Z,61.71
2019-04-26T04:49:33.682Z,61.94
2019-04-26T04:50:33.704Z,62.11
2019-04-26T04:51:33.674Z,62.01
2019-04-26T04:52:33.654Z,61.80
2019-04-26T04:53:33.637Z,61.51
2019-04-26T04:54:33.629Z,61.30
2019-04-26T04:55:33.646Z,61.10
2019-04-26T04:56:33.603Z,61.71
2019-04-26T04:57:33.592Z,61.30
2019-04-26T04:58:33.601Z,61.91
2019-04-26T04:59:33.572Z,61.91
2019-04-26T05:00:33.586Z,61.80
2019-04-26T05:01:33.566Z,61.94
2019-04-26T05:02:33.556Z,61.71
2019-04-26T05:03:33.524Z,62.11
2019-04-26T05:04:33.511Z,61.51
2019-04-26T05:05:33.536Z,61.80
2019-04-26T05:06:33.491Z,61.51
2019-04-26T05:07:33.486Z,62.01
2019-04-26T05:08:33.483Z,61.80
2019-04-26T05:09:33.488Z,62.11
2019-04-26T05:10:33.497Z,61.91
2019-04-26T05:11:33.431Z,62.51
2019-04-26T05:12:33.429Z,62.51
2019-04-26T05:13:33.414Z,62.51
2019-04-26T05:14:33.408Z,61.91
2019-04-26T05:15:33.430Z,62.51
2019-04-26T05:16:33.381Z,62.82
2019-04-26T05:17:33.368Z,62.92
2019-04-26T05:18:33.357Z,62.85
2019-04-26T05:19:33.341Z,62.71
2019-04-26T05:20:33.335Z,62.01
2019-04-26T05:21:33.352Z,62.62
2019-04-26T05:22:33.306Z,61.51
2019-04-26T05:23:33.299Z,62.41
2019-04-26T05:24:33.284Z,61.80
2019-04-26T05:25:33.296Z,62.71
2019-04-26T05:26:33.322Z,62.92
2019-04-26T05:27:33.254Z,62.71
2019-04-26T05:28:33.246Z,62.41
2019-04-26T05:29:33.233Z,62.01
2019-04-26T05:30:33.225Z,62.51
2019-04-26T05:31:33.237Z,62.11
2019-04-26T05:32:33.196Z,61.80
2019-04-26T05:33:33.182Z,62.51
2019-04-26T05:34:33.175Z,62.71
2019-04-26T05:35:33.179Z,62.41
2019-04-26T05:36:33.193Z,62.82
2019-04-26T05:37:33.167Z,62.62
2019-04-26T05:38:33.127Z,62.82
2019-04-26T05:39:33.129Z,62.82
2019-04-26T05:40:33.130Z,62.21
2019-04-26T05:41:33.130Z,63.02
2019-04-26T05:42:33.086Z,63.09
2019-04-26T05:43:33.102Z,63.29
2019-04-26T05:44:33.113Z,62.59
2019-04-26T05:45:33.056Z,62.82
2019-04-26T05:46:33.088Z,63.42
2019-04-26T05:47:33.027Z,63.32
2019-04-26T05:48:33.022Z,63.12
2019-04-26T05:49:33.020Z,63.39
2019-04-26T05:50:32.992Z,63.79
2019-04-26T05:51:33.014Z,62.28
2019-04-26T05:52:32.970Z,62.38
2019-04-26T05:53:32.975Z,63.09
2019-04-26T05:54:32.960Z,62.38
2019-04-26T05:55:32.937Z,63.09
2019-04-26T05:56:32.970Z,63.70
2019-04-26T05:57:32.925Z,63.67
2019-04-26T05:58:32.902Z,63.46
2019-04-26T05:59:32.901Z,63.46
2019-04-26T06:00:32.884Z,63.39
2019-04-26T06:01:32.869Z,63.19
2019-04-26T06:02:32.894Z,63.36
2019-04-26T06:03:32.855Z,63.49
2019-04-26T06:04:32.843Z,63.36
2019-04-26T06:05:32.847Z,63.36
2019-04-26T06:06:32.816Z,62.25
2019-04-26T06:07:32.843Z,63.76
2019-04-26T06:08:32.820Z,63.46
2019-04-26T06:09:32.796Z,62.76
2019-04-26T06:10:32.778Z,62.35
2019-04-26T06:11:32.767Z,63.06
2019-04-26T06:12:32.785Z,62.15
2019-04-26T06:13:32.735Z,62.35
2019-04-26T06:14:32.728Z,62.25
2019-04-26T06:15:32.714Z,62.43
2019-04-26T06:16:32.703Z,61.75
2019-04-26T06:17:33.730Z,62.35
2019-04-26T06:18:32.679Z,62.32
2019-04-26T06:19:32.674Z,62.32
2019-04-26T06:20:32.657Z,62.22
2019-04-26T06:21:32.646Z,62.93
2019-04-26T06:22:32.671Z,62.22
2019-04-26T06:23:32.624Z,62.52
2019-04-26T06:24:32.623Z,62.52
2019-04-26T06:25:32.609Z,63.03
2019-04-26T06:26:32.599Z,62.32
2019-04-26T06:27:32.617Z,62.43
2019-04-26T06:28:32.577Z,62.32
2019-04-26T06:29:32.817Z,61.39
2019-04-26T06:30:44.816Z,62.40
2019-04-26T06:31:33.533Z,61.99
2019-04-26T06:32:32.604Z,62.29
2019-04-26T06:33:32.520Z,61.69
2019-04-26T06:34:32.510Z,61.59
2019-04-26T06:35:32.495Z,62.49
2019-04-26T06:36:32.486Z,62.09
2019-04-26T06:37:32.545Z,62.29
2019-04-26T06:38:43.265Z,62.40
2019-04-26T06:39:33.452Z,62.19
2019-04-26T06:40:41.651Z,61.76
2019-04-26T06:41:33.430Z,61.69
2019-04-26T06:42:32.421Z,62.06
2019-04-26T06:43:32.453Z,62.19
2019-04-26T06:44:32.390Z,61.86
2019-04-26T06:45:32.381Z,61.66
2019-04-26T06:46:32.366Z,61.79
2019-04-26T06:47:32.362Z,61.46
2019-04-26T06:48:32.392Z,60.85
2019-04-26T06:49:32.340Z,61.56
2019-04-26T06:50:32.324Z,60.96
2019-04-26T06:51:32.315Z,61.66
2019-04-26T06:52:32.301Z,61.96
2019-04-26T06:53:32.319Z,61.66
2019-04-26T06:54:32.279Z,61.66
2019-04-26T06:55:32.273Z,61.36
2019-04-26T06:56:32.253Z,61.63
2019-04-26T06:57:32.249Z,61.63
2019-04-26T06:58:32.269Z,62.13
2019-04-26T06:59:36.489Z,61.13
2019-04-26T07:00:32.219Z,61.03
2019-04-26T07:01:32.201Z,61.10
2019-04-26T07:02:32.191Z,61.00
2019-04-26T07:03:32.205Z,60.52
2019-04-26T07:04:32.171Z,61.10
2019-04-26T07:05:32.160Z,60.19
2019-04-26T07:06:35.240Z,60.39
2019-04-26T07:07:32.137Z,60.80
2019-04-26T07:08:32.187Z,60.49
2019-04-26T07:09:32.112Z,60.39
2019-04-26T07:10:32.097Z,60.29
2019-04-26T07:11:32.086Z,59.69
2019-04-26T07:12:32.105Z,58.75
2019-04-26T07:13:32.069Z,58.95
2019-04-26T07:14:32.088Z,58.83
2019-04-26T07:15:32.047Z,59.13
2019-04-26T07:16:32.028Z,58.62
2019-04-26T07:17:32.029Z,59.53
2019-04-26T07:18:32.020Z,59.20
2019-04-26T07:19:32.026Z,58.90
2019-04-26T07:20:31.986Z,58.67
2019-04-26T07:21:31.979Z,58.27
2019-04-26T07:22:35.605Z,57.77
2019-04-26T07:23:31.955Z,58.34
2019-04-26T07:24:31.989Z,58.24
2019-04-26T07:25:31.933Z,58.44
2019-04-26T07:26:31.917Z,57.54
2019-04-26T07:27:31.910Z,57.41
2019-04-26T07:28:31.894Z,57.41
2019-04-26T07:29:31.921Z,57.71
2019-04-26T07:30:31.948Z,57.41
2019-04-26T07:31:31.866Z,57.68
2019-04-26T07:32:31.849Z,57.71
2019-04-26T07:33:31.837Z,57.28
2019-04-26T07:34:31.862Z,57.08
2019-04-26T07:35:31.815Z,57.79
2019-04-26T07:36:31.804Z,57.39
2019-04-26T07:37:31.796Z,57.39
2019-04-26T07:38:31.794Z,56.18
2019-04-26T07:39:31.816Z,56.98
2019-04-26T07:40:31.771Z,56.78
2019-04-26T07:41:31.756Z,57.28
2019-04-26T07:42:31.750Z,56.58
2019-04-26T07:43:31.744Z,56.28
2019-04-26T07:44:31.725Z,56.96
2019-04-26T07:45:31.738Z,57.46
2019-04-26T07:46:31.695Z,57.35
2019-04-26T07:47:31.701Z,56.26
2019-04-26T07:48:31.678Z,57.26
2019-04-26T07:49:31.663Z,57.06
2019-04-26T07:50:31.681Z,57.06
2019-04-26T07:51:31.641Z,57.06
2019-04-26T07:52:31.631Z,57.06
2019-04-26T07:53:31.615Z,57.15
2019-04-26T07:54:31.609Z,56.35
2019-04-26T07:55:31.629Z,55.93
2019-04-26T07:56:31.590Z,56.13
2019-04-26T07:57:31.576Z,56.02
2019-04-26T07:58:31.561Z,56.13
2019-04-26T07:59:31.558Z,55.52
2019-04-26T08:00:44.202Z,56.52
2019-04-26T08:01:32.524Z,56.63
2019-04-26T08:02:31.519Z,56.20
2019-04-26T08:03:31.506Z,54.80
2019-04-26T08:04:31.498Z,54.39
2019-04-26T08:05:31.521Z,53.00
2019-04-26T08:06:31.474Z,52.39
2019-04-26T08:07:31.459Z,53.17
2019-04-26T08:08:31.455Z,53.24
2019-04-26T08:09:31.442Z,52.67
2019-04-26T08:10:31.462Z,52.55
2019-04-26T08:11:31.428Z,53.94
2019-04-26T08:12:31.407Z,53.05
2019-04-26T08:13:31.397Z,53.24
2019-04-26T08:14:31.380Z,53.55
2019-04-26T08:15:31.443Z,53.42
2019-04-26T08:16:31.362Z,52.02
2019-04-26T08:17:31.354Z,50.42
2019-04-26T08:18:31.345Z,50.82
2019-04-26T08:19:31.406Z,52.99
2019-04-26T08:20:32.021Z,52.39
2019-04-26T08:21:32.022Z,52.89
2019-04-26T08:22:32.473Z,52.09
2019-04-26T08:23:39.521Z,50.77
2019-04-26T08:24:32.281Z,49.99
2019-04-26T08:25:31.270Z,51.37
2019-04-26T08:26:31.287Z,52.47
2019-04-26T08:27:31.266Z,52.67
2019-04-26T08:28:31.229Z,51.67
2019-04-26T08:29:33.304Z,52.07
2019-04-26T08:30:31.236Z,51.77
2019-04-26T08:31:31.261Z,51.67
2019-04-26T08:32:32.054Z,52.47
2019-04-26T08:33:31.172Z,52.57
2019-04-26T08:34:33.747Z,52.74
2019-04-26T08:35:31.156Z,52.34
2019-04-26T08:36:31.184Z,52.34
2019-04-26T08:37:32.267Z,52.34
2019-04-26T08:38:31.120Z,51.04
2019-04-26T08:39:44.481Z,50.95
2019-04-26T08:40:32.159Z,51.94
2019-04-26T08:41:31.122Z,50.74
2019-04-26T08:42:31.073Z,50.54
2019-04-26T08:43:31.907Z,49.85
2019-04-26T08:44:34.530Z,50.15
2019-04-26T08:45:31.041Z,49.05
2019-04-26T08:46:32.318Z,48.14
2019-04-26T08:47:31.010Z,48.52
2019-04-26T08:48:30.999Z,46.62
2019-04-26T08:49:30.996Z,47.63
2019-04-26T08:50:30.978Z,48.02
2019-04-26T08:51:31.009Z,47.42
2019-04-26T08:52:30.978Z,47.42
2019-04-26T08:53:30.945Z,48.60
2019-04-26T08:54:32.605Z,49.70
2019-04-26T08:55:30.925Z,50.30
2019-04-26T08:56:30.908Z,47.00
2019-04-26T08:57:30.933Z,47.71
2019-04-26T08:58:30.898Z,46.91
2019-04-26T08:59:30.882Z,48.00
2019-04-26T09:00:30.871Z,47.00
2019-04-26T09:01:30.852Z,47.30
2019-04-26T09:02:30.879Z,46.70
2019-04-26T09:03:32.435Z,46.80
2019-04-26T09:04:30.818Z,46.41
2019-04-26T09:05:30.813Z,46.91
2019-04-26T09:06:30.805Z,47.20
2019-04-26T09:07:30.826Z,46.61
2019-04-26T09:08:30.784Z,46.80
2019-04-26T09:09:32.375Z,46.88
2019-04-26T09:10:30.764Z,46.88
2019-04-26T09:11:33.905Z,46.48
2019-04-26T09:12:30.760Z,47.08
2019-04-26T09:13:30.722Z,46.28
2019-04-26T09:14:30.719Z,46.78
2019-04-26T09:15:30.705Z,46.48
2019-04-26T09:16:30.694Z,46.31
2019-04-26T09:17:32.328Z,46.80
2019-04-26T09:18:42.291Z,46.68
2019-04-26T09:19:32.245Z,46.58
2019-04-26T09:20:30.643Z,46.88
2019-04-26T09:21:30.636Z,46.68
2019-04-26T09:22:30.662Z,46.78
2019-04-26T09:23:39.953Z,46.68
2019-04-26T09:24:31.603Z,46.78
2019-04-26T09:25:34.587Z,46.88
2019-04-26T09:26:31.698Z,46.78
2019-04-26T09:27:30.612Z,46.28
2019-04-26T09:28:30.555Z,46.58
2019-04-26T09:29:32.086Z,47.18
2019-04-26T09:30:34.063Z,47.18
2019-04-26T09:31:30.538Z,46.78
2019-04-26T09:32:30.508Z,46.68
2019-04-26T09:33:31.851Z,46.78
2019-04-26T09:34:31.485Z,46.88
2019-04-26T09:35:30.482Z,46.78
2019-04-26T09:36:30.470Z,47.18
2019-04-26T09:37:30.458Z,47.28
2019-04-26T09:38:30.550Z,46.88
2019-04-26T09:39:30.481Z,46.68
2019-04-26T09:40:30.424Z,46.16
2019-04-26T09:41:30.830Z,46.46
2019-04-26T09:42:30.416Z,46.76
2019-04-26T09:43:30.423Z,47.63
2019-04-26T09:44:30.382Z,46.84
2019-04-26T09:45:30.365Z,46.81
2019-04-26T09:46:30.363Z,46.73
2019-04-26T09:47:30.362Z,45.72
2019-04-26T09:48:30.366Z,45.22
2019-04-26T09:49:30.329Z,44.82
2019-04-26T09:50:30.311Z,44.92
2019-04-26T09:51:30.305Z,44.72
2019-04-26T09:52:30.291Z,44.92
2019-04-26T09:53:30.332Z,44.92
2019-04-26T09:54:30.267Z,44.12
2019-04-26T09:55:35.714Z,44.50
2019-04-26T09:56:31.251Z,43.90
2019-04-26T09:57:30.238Z,44.90
2019-04-26T09:58:30.830Z,45.00
2019-04-26T09:59:30.220Z,44.40
2019-04-26T10:00:30.208Z,44.10
2019-04-26T10:01:30.193Z,45.00
2019-04-26T10:02:33.833Z,45.40
2019-04-26T10:03:31.226Z,45.00
2019-04-26T10:04:30.171Z,44.58
2019-04-26T10:05:30.164Z,45.08
2019-04-26T10:06:30.980Z,44.18
2019-04-26T10:07:33.418Z,44.48
2019-04-26T10:08:31.141Z,44.08
2019-04-26T10:09:30.971Z,44.38
2019-04-26T10:10:31.034Z,44.16
2019-04-26T10:11:30.081Z,44.06
2019-04-26T10:12:30.070Z,44.06
2019-04-26T10:13:30.132Z,43.66
2019-04-26T10:14:30.050Z,44.06
2019-04-26T10:15:30.038Z,43.66
2019-04-26T10:16:33.576Z,44.18
2019-04-26T10:17:31.016Z,44.28
2019-04-26T10:18:30.051Z,43.38
2019-04-26T10:19:31.644Z,43.98
2019-04-26T10:20:29.985Z,43.37
2019-04-26T10:21:29.969Z,43.86
2019-04-26T10:22:29.956Z,43.88
2019-04-26T10:23:29.996Z,43.38
2019-04-26T10:24:29.954Z,43.79
2019-04-26T10:25:29.943Z,43.98
2019-04-26T10:26:30.021Z,43.88
2019-04-26T10:27:32.377Z,44.31
2019-04-26T10:28:29.940Z,44.31
2019-04-26T10:29:29.926Z,44.10
2019-04-26T10:30:29.875Z,44.01
2019-04-26T10:31:29.861Z,43.71
2019-04-26T10:32:29.844Z,43.79
2019-04-26T10:33:32.645Z,43.79
2019-04-26T10:34:30.854Z,43.68
2019-04-26T10:35:29.831Z,43.59
2019-04-26T10:36:31.227Z,43.88
2019-04-26T10:37:39.183Z,43.49
2019-04-26T10:38:30.777Z,44.20
2019-04-26T10:39:32.474Z,44.38
2019-04-26T10:40:35.788Z,43.59
2019-04-26T10:41:30.754Z,43.49
2019-04-26T10:42:29.746Z,43.68
2019-04-26T10:43:29.722Z,44.38
2019-04-26T10:44:29.741Z,43.49
2019-04-26T10:45:29.707Z,43.46
2019-04-26T10:46:29.694Z,42.86
2019-04-26T10:47:29.696Z,43.07
2019-04-26T10:48:29.695Z,43.16
2019-04-26T10:49:29.727Z,42.86
2019-04-26T10:50:33.125Z,42.97
2019-04-26T10:51:29.636Z,42.37
2019-04-26T10:52:29.623Z,41.75
2019-04-26T10:53:30.349Z,41.42
2019-04-26T10:54:29.635Z,38.98
2019-04-26T10:55:29.592Z,36.71
2019-04-26T10:56:29.576Z,34.84
2019-04-26T10:57:29.570Z,32.60
2019-04-26T10:58:31.944Z,31.16
2019-04-26T10:59:31.891Z,30.62
2019-04-26T11:00:29.538Z,28.02
2019-04-26T11:01:29.530Z,28.89
2019-04-26T11:02:29.527Z,28.01
2019-04-26T11:03:29.516Z,27.20
2019-04-26T11:04:29.550Z,26.27
2019-04-26T11:05:29.480Z,25.35
2019-04-26T11:06:29.471Z,24.91
2019-04-26T11:07:29.462Z,23.52
2019-04-26T11:08:29.458Z,22.99
2019-04-26T11:09:29.442Z,22.42
2019-04-26T11:10:29.463Z,23.02
2019-04-26T11:11:29.419Z,23.35
2019-04-26T11:12:29.413Z,24.23
2019-04-26T11:13:29.403Z,24.23
2019-04-26T11:14:29.397Z,23.82
2019-04-26T11:15:32.737Z,23.04
2019-04-26T11:16:29.391Z,23.05
2019-04-26T11:17:29.374Z,23.82
2019-04-26T11:18:29.361Z,22.74
2019-04-26T11:19:31.953Z,21.85
2019-04-26T11:20:30.379Z,22.23
2019-04-26T11:21:29.330Z,21.53
2019-04-26T11:22:33.133Z,21.43
2019-04-26T11:23:29.320Z,20.84
2019-04-26T11:24:29.300Z,21.22
2019-04-26T11:25:29.560Z,20.54
2019-04-26T11:26:31.091Z,20.92
2019-04-26T11:27:30.283Z,20.79
2019-04-26T11:28:29.269Z,20.21
2019-04-26T11:29:30.224Z,19.82
2019-04-26T11:30:29.284Z,20.52
2019-04-26T11:31:29.357Z,20.50
2019-04-26T11:32:29.234Z,19.91
2019-04-26T11:33:29.232Z,20.71
2019-04-26T11:34:29.322Z,20.99
2019-04-26T11:35:33.017Z,21.41
2019-04-26T11:36:30.214Z,21.25
2019-04-26T11:37:29.190Z,21.34
2019-04-26T11:38:31.259Z,20.83
2019-04-26T11:39:29.209Z,21.09
2019-04-26T11:40:29.286Z,20.99
2019-04-26T11:41:29.157Z,20.11
2019-04-26T11:42:29.156Z,20.81
2019-04-26T11:43:29.150Z,20.74
2019-04-26T11:44:29.135Z,21.64
2019-04-26T11:45:29.214Z,22.85
2019-04-26T11:46:30.310Z,22.86
2019-04-26T11:47:29.130Z,21.96
2019-04-26T11:48:30.598Z,21.94
2019-04-26T11:49:29.100Z,21.36
2019-04-26T11:50:29.099Z,20.96
2019-04-26T11:51:29.118Z,21.65
2019-04-26T11:52:32.140Z,21.67
2019-04-26T11:53:30.068Z,23.25
2019-04-26T11:54:29.057Z,23.25
2019-04-26T11:55:29.767Z,22.76
2019-04-26T11:56:29.074Z,22.76
2019-04-26T11:57:29.039Z,23.16
2019-04-26T11:58:29.023Z,23.56
2019-04-26T11:59:30.583Z,23.90
2019-04-26T12:00:29.000Z,24.80
2019-04-26T12:01:29.031Z,25.73
2019-04-26T12:02:28.991Z,26.73
2019-04-26T12:03:28.980Z,26.97
2019-04-26T12:04:28.969Z,28.16
2019-04-26T12:05:28.972Z,28.67
2019-04-26T12:06:28.987Z,28.39
2019-04-26T12:07:28.980Z,28.69
2019-04-26T12:08:28.933Z,29.38
2019-04-26T12:09:28.925Z,29.39
2019-04-26T12:10:28.908Z,28.40
2019-04-26T12:11:34.234Z,28.40
2019-04-26T12:12:29.902Z,29.61
2019-04-26T12:13:28.905Z,29.71
2019-04-26T12:14:29.552Z,28.79
2019-04-26T12:15:30.533Z,28.59
2019-04-26T12:16:28.924Z,28.99
2019-04-26T12:17:31.222Z,28.41
2019-04-26T12:18:29.933Z,29.00
2019-04-26T12:19:28.825Z,29.11
2019-04-26T12:20:28.829Z,30.10
2019-04-26T12:21:30.508Z,30.21
2019-04-26T12:22:28.789Z,30.04
2019-04-26T12:23:28.789Z,31.26
2019-04-26T12:24:29.996Z,31.76
2019-04-26T12:25:30.992Z,32.68
2019-04-26T12:26:28.780Z,32.80
2019-04-26T12:27:30.710Z,33.51
2019-04-26T12:28:28.735Z,34.22
2019-04-26T12:29:28.717Z,35.02
2019-04-26T12:30:28.712Z,35.04
2019-04-26T12:31:28.731Z,35.35
2019-04-26T12:32:28.685Z,35.24
2019-04-26T12:33:28.677Z,35.85
2019-04-26T12:34:28.689Z,35.75
2019-04-26T12:35:30.099Z,35.86
2019-04-26T12:36:28.639Z,36.28
2019-04-26T12:37:28.666Z,36.28
2019-04-26T12:38:30.031Z,36.99
2019-04-26T12:39:32.242Z,36.99
2019-04-26T12:40:29.606Z,36.81
2019-04-26T12:41:39.785Z,36.99
2019-04-26T12:42:29.617Z,36.32
2019-04-26T12:43:28.563Z,36.79
2019-04-26T12:44:32.161Z,36.69
2019-04-26T12:45:29.544Z,35.60
2019-04-26T12:46:29.661Z,35.58
2019-04-26T12:47:30.590Z,35.78
2019-04-26T12:48:28.514Z,35.69
2019-04-26T12:49:28.503Z,35.47
2019-04-26T12:50:29.393Z,34.88
2019-04-26T12:51:29.483Z,35.57
2019-04-26T12:52:28.507Z,34.97